Time;durP1;ratioP1;P1;durP2;ratioP2;P2;SDS_P1;SDS_P2;PMS_P1;PMS_P2;Temp;Humidity;BMP_temperature;BMP_pressure;BME280_temperature;BME280_humidity;BME280_pressure;Samples;Min_cycle;Max_cycle;Signal;HPM_P1;HPM_P2
2021/12/16 00:08:36;;;;;;;94.25;48.15;;;;;;;1.44;100.00;101881.06;5065454;28;20059;-69
2021/12/16 00:30:09;;;;;;;98.43;48.20;;;;;;;1.63;100.00;101879.69;5057667;28;20089;-68
2021/12/16 00:32:59;;;;;;;95.07;49.08;;;;;;;1.64;100.00;101870.84;5061108;28;20028;-68
2021/12/16 00:35:25;;;;;;;94.07;46.88;;;;;;;1.77;100.00;101887.22;5067592;28;20059;-68
2021/12/16 00:37:51;;;;;;;84.43;45.25;;;;;;;1.75;100.00;101876.72;5063130;28;20440;-68
2021/12/16 00:40:16;;;;;;;85.72;46.13;;;;;;;1.77;100.00;101872.25;5062015;28;20387;-69
2021/12/16 00:42:53;;;;;;;88.43;45.67;;;;;;;1.81;100.00;101886.25;5064856;28;20037;-68
2021/12/16 00:45:34;;;;;;;85.78;45.60;;;;;;;1.82;100.00;101883.56;5060662;28;20031;-68
2021/12/16 00:48:08;;;;;;;88.03;47.45;;;;;;;1.83;100.00;101879.13;5059432;28;20081;-69
2021/12/16 00:55:51;;;;;;;89.10;47.03;;;;;;;1.91;100.00;101867.41;5056679;28;20043;-68
2021/12/16 00:58:21;;;;;;;94.22;48.92;;;;;;;1.89;100.00;101865.75;5065079;28;20111;-68
2021/12/16 01:00:57;;;;;;;89.30;47.53;;;;;;;1.92;100.00;101858.59;5062383;28;20110;-68
2021/12/16 01:03:34;;;;;;;94.60;47.15;;;;;;;1.95;100.00;101860.28;5058450;28;20075;-68
2021/12/16 01:09:49;;;;;;;86.35;45.30;;;;;;;1.96;100.00;101844.38;5055756;28;20048;-68
2021/12/16 01:53:01;;;;;;;77.65;40.78;;;;;;;2.24;100.00;101842.66;5061992;28;20491;-69
2021/12/16 01:55:43;;;;;;;75.68;38.85;;;;;;;2.29;100.00;101834.59;5059421;28;20376;-69
2021/12/16 01:58:13;;;;;;;81.00;40.00;;;;;;;2.30;100.00;101838.97;5060162;28;20033;-69
2021/12/16 02:00:52;;;;;;;82.05;40.33;;;;;;;2.30;100.00;101834.53;5061110;28;20520;-69
2021/12/16 02:03:25;;;;;;;79.32;42.65;;;;;;;2.31;100.00;101841.56;5059354;28;20110;-69
2021/12/16 02:06:08;;;;;;;73.90;39.53;;;;;;;2.31;100.00;101840.69;5062125;28;20025;-69
2021/12/16 02:08:38;;;;;;;72.00;39.97;;;;;;;2.33;100.00;101845.00;5055873;28;20033;-68
2021/12/16 02:27:16;;;;;;;71.40;38.13;;;;;;;2.34;100.00;101846.78;5054604;28;20044;-68
2021/12/16 02:32:52;;;;;;;;;;;;;;;2.30;100.00;101844.25;5061116;28;20480;-68
2021/12/16 02:35:30;;;;;;;76.40;39.45;;;;;;;2.27;100.00;101833.75;5059518;28;19927;-69
2021/12/16 02:37:59;;;;;;;73.68;38.97;;;;;;;2.26;100.00;101838.19;5056649;28;20428;-68
2021/12/16 02:40:25;;;;;;;75.25;40.33;;;;;;;2.22;100.00;101823.31;5055837;28;20082;-68
2021/12/16 02:43:27;;;;;;;77.95;40.38;;;;;;;2.25;100.00;101827.63;5051594;28;20063;-68
2021/12/16 02:48:33;;;;;;;;;;;;;;;2.19;100.00;101817.22;5059624;28;20035;-69
2021/12/16 02:51:03;;;;;;;70.45;36.42;;;;;;;2.21;100.00;101815.41;5055602;28;19916;-69
2021/12/16 02:53:29;;;;;;;72.90;38.42;;;;;;;2.15;100.00;101813.81;5056052;28;20383;-68
2021/12/16 02:55:55;;;;;;;75.93;39.60;;;;;;;2.11;100.00;101811.31;5058516;28;20402;-68
2021/12/16 02:58:21;;;;;;;70.75;37.90;;;;;;;2.06;100.00;101816.72;5059144;28;20050;-68
2021/12/16 03:00:53;;;;;;;76.68;39.33;;;;;;;2.02;100.00;101812.44;5061810;28;20016;-68
2021/12/16 03:03:19;;;;;;;70.47;37.70;;;;;;;1.98;100.00;101815.22;5060087;28;20090;-68
2021/12/16 03:05:45;;;;;;;68.32;37.55;;;;;;;1.92;100.00;101810.09;5056199;28;20024;-68
2021/12/16 03:08:10;;;;;;;72.32;38.55;;;;;;;1.88;100.00;101817.28;5065242;28;20371;-68
2021/12/16 03:11:01;;;;;;;71.82;38.55;;;;;;;1.86;100.00;101819.09;5056794;28;20033;-68
2021/12/16 03:13:32;;;;;;;68.07;37.17;;;;;;;1.83;100.00;101813.88;5058330;28;20024;-68
2021/12/16 03:21:09;;;;;;;70.43;36.95;;;;;;;1.67;100.00;101811.69;5061368;28;20033;-68
2021/12/16 03:38:50;;;;;;;78.50;38.83;;;;;;;1.43;100.00;101810.63;5065596;28;20345;-68
2021/12/16 03:41:16;;;;;;;71.60;37.80;;;;;;;1.34;100.00;101794.13;5058629;28;20043;-68
2021/12/16 03:43:42;;;;;;;77.45;38.63;;;;;;;1.39;100.00;101813.38;5065665;28;20445;-68
2021/12/16 03:48:43;;;;;;;68.05;35.75;;;;;;;1.33;100.00;101813.53;5059511;28;20095;-67
2021/12/16 03:51:12;;;;;;;77.05;38.55;;;;;;;1.19;100.00;101792.75;5057510;28;20033;-68
2021/12/16 03:53:42;;;;;;;73.95;37.80;;;;;;;1.28;100.00;101804.84;5062870;28;20036;-68
2021/12/16 03:56:07;;;;;;;77.90;37.33;;;;;;;1.31;100.00;101812.69;5062696;28;20494;-68
2021/12/16 03:58:33;;;;;;;83.95;38.25;;;;;;;1.38;100.00;101817.78;5062840;28;20107;-68
2021/12/16 04:01:02;;;;;;;89.00;39.78;;;;;;;1.38;100.00;101822.19;5062508;28;20013;-68
2021/12/16 04:03:28;;;;;;;90.53;38.67;;;;;;;1.40;100.00;101826.56;5061800;28;20046;-68
2021/12/16 04:05:54;;;;;;;69.97;36.45;;;;;;;1.42;100.00;101818.59;5066225;28;20028;-68
2021/12/16 04:08:20;;;;;;;77.22;38.90;;;;;;;1.37;100.00;101818.69;5065506;28;20036;-68
2021/12/16 04:11:04;;;;;;;99.57;36.38;;;;;;;1.38;100.00;101816.91;5059227;28;20029;-68
2021/12/16 04:13:30;;;;;;;112.78;36.80;;;;;;;1.35;100.00;101819.66;5057926;28;20056;-68
2021/12/16 04:15:56;;;;;;;112.97;34.58;;;;;;;1.38;100.00;101825.72;5061830;28;20475;-68
2021/12/16 04:18:22;;;;;;;67.88;33.28;;;;;;;1.33;100.00;101826.75;5059309;28;20531;-68
2021/12/16 04:20:48;;;;;;;77.18;36.35;;;;;;;1.33;100.00;101830.28;5062045;28;20032;-68
2021/12/16 04:23:14;;;;;;;93.68;35.45;;;;;;;1.35;100.00;101827.59;5059182;28;20032;-68
2021/12/16 04:25:43;;;;;;;86.15;33.70;;;;;;;1.36;100.00;101838.09;5050911;28;20051;-68
2021/12/16 04:28:18;;;;;;;99.72;33.90;;;;;;;1.32;100.00;101825.03;5053685;28;20472;-68
2021/12/16 04:30:43;;;;;;;67.18;35.03;;;;;;;1.29;100.00;101831.22;5059834;28;20032;-68
2021/12/16 04:33:10;;;;;;;70.82;35.38;;;;;;;1.25;100.00;101823.41;5067109;28;20471;-68
2021/12/16 04:35:36;;;;;;;67.60;34.40;;;;;;;1.31;100.00;101828.56;5067178;28;20028;-68
2021/12/16 04:38:04;;;;;;;77.88;34.80;;;;;;;1.27;100.00;101830.41;5059829;28;20035;-68
2021/12/16 04:40:30;;;;;;;86.38;34.85;;;;;;;1.28;100.00;101829.50;5064010;28;20380;-68
2021/12/16 04:43:01;;;;;;;80.10;32.50;;;;;;;1.27;100.00;101819.84;5054745;28;20487;-68
2021/12/16 04:45:28;;;;;;;91.70;35.40;;;;;;;1.21;100.00;101814.72;5061467;28;20035;-68
2021/12/16 04:47:54;;;;;;;70.75;37.13;;;;;;;1.26;100.00;101819.91;5057003;28;20033;-68
2021/12/16 04:50:19;;;;;;;74.97;36.45;;;;;;;1.20;100.00;101815.63;5061487;28;20163;-68
2021/12/16 04:52:46;;;;;;;90.00;33.78;;;;;;;1.21;100.00;101822.66;5063099;28;20037;-68
2021/12/16 04:55:13;;;;;;;80.35;32.60;;;;;;;1.24;100.00;101824.34;5050251;28;20067;-68
2021/12/16 04:57:39;;;;;;;69.22;32.20;;;;;;;1.20;100.00;101822.69;5061567;28;20036;-68
2021/12/16 05:00:09;;;;;;;77.50;32.45;;;;;;;1.16;100.00;101828.97;5065316;28;20044;-68
2021/12/16 05:02:35;;;;;;;70.20;32.13;;;;;;;1.10;100.00;101829.13;5053292;28;20111;-68
2021/12/16 05:05:01;;;;;;;72.03;32.65;;;;;;;0.95;100.00;101805.72;5060393;28;20029;-68
2021/12/16 05:07:27;;;;;;;62.90;33.65;;;;;;;1.06;100.00;101822.19;5063435;28;20387;-68
2021/12/16 05:12:20;;;;;;;63.50;33.38;;;;;;;0.96;100.00;101808.31;5055100;28;20119;-68
2021/12/16 05:14:47;;;;;;;76.35;34.58;;;;;;;1.02;100.00;101824.00;5054368;28;20025;-69
2021/12/16 05:17:28;;;;;;;78.57;34.75;;;;;;;0.99;100.00;101812.66;5059939;28;20040;-69
2021/12/16 05:19:56;;;;;;;82.57;31.63;;;;;;;0.98;100.00;101808.28;5059645;28;20672;-69
2021/12/16 05:25:17;;;;;;;64.93;34.22;;;;;;;1.04;100.00;101811.66;5064016;28;20114;-69
2021/12/16 05:27:43;;;;;;;99.53;35.78;;;;;;;1.07;100.00;101810.69;5060229;28;20047;-68
2021/12/16 05:30:09;;;;;;;72.82;34.25;;;;;;;1.04;100.00;101800.22;5062307;28;20029;-69
2021/12/16 05:32:35;;;;;;;87.80;36.72;;;;;;;1.06;100.00;101804.53;5062014;28;20032;-68
2021/12/16 05:35:00;;;;;;;86.18;37.15;;;;;;;1.08;100.00;101805.38;5056919;28;20047;-67
2021/12/16 05:37:26;;;;;;;85.40;37.15;;;;;;;1.10;100.00;101805.34;5056336;28;20073;-68
2021/12/16 05:39:51;;;;;;;86.70;37.90;;;;;;;1.14;100.00;101812.28;5058932;28;20031;-68
2021/12/16 05:42:17;;;;;;;86.38;38.38;;;;;;;1.14;100.00;101812.28;5057433;28;20025;-67
2021/12/16 05:44:42;;;;;;;99.40;37.92;;;;;;;1.17;100.00;101812.19;5060773;28;20025;-68
2021/12/16 05:47:08;;;;;;;107.93;39.10;;;;;;;1.20;100.00;101814.75;5068685;28;20058;-68
2021/12/16 05:49:33;;;;;;;94.28;37.85;;;;;;;1.17;100.00;101807.78;5063571;28;20026;-67
2021/12/16 05:51:59;;;;;;;82.15;39.67;;;;;;;1.16;100.00;101799.91;5062857;28;20036;-68
2021/12/16 05:54:25;;;;;;;96.93;39.50;;;;;;;1.19;100.00;101807.75;5057881;28;20028;-68
2021/12/16 05:56:50;;;;;;;98.35;39.47;;;;;;;1.14;100.00;101807.00;5059159;28;20043;-69
2021/12/16 05:59:18;;;;;;;100.53;39.80;;;;;;;1.19;100.00;101813.88;5063363;28;20053;-68
2021/12/16 06:01:46;;;;;;;90.53;39.20;;;;;;;1.14;100.00;101797.28;5060776;28;20106;-68
2021/12/16 06:04:12;;;;;;;81.10;39.92;;;;;;;1.22;100.00;101805.00;5058263;28;20158;-68
2021/12/16 06:06:38;;;;;;;90.32;44.40;;;;;;;1.24;100.00;101811.13;5059126;28;20762;-68
2021/12/16 06:09:06;;;;;;;92.72;41.03;;;;;;;1.23;100.00;101812.88;5059924;28;20039;-68
2021/12/16 06:11:32;;;;;;;86.05;41.25;;;;;;;1.29;100.00;101823.31;5058963;28;20477;-68
2021/12/16 06:14:14;;;;;;;87.75;40.60;;;;;;;1.29;100.00;101818.03;5058616;28;20020;-68
2021/12/16 06:27:42;;;;;;;75.25;35.53;;;;;;;1.40;100.00;101805.41;5062545;28;20055;-68
2021/12/16 06:30:10;;;;;;;80.90;38.05;;;;;;;1.44;100.00;101804.41;5062222;28;20103;-68
2021/12/16 06:32:36;;;;;;;78.57;39.05;;;;;;;1.51;100.00;101823.59;5057563;28;20047;-69
2021/12/16 06:35:35;;;;;;;70.03;37.17;;;;;;;1.38;100.00;101803.69;5065438;28;20028;-71
2021/12/16 06:38:02;;;;;;;79.85;39.08;;;;;;;1.54;100.00;101829.69;5056537;28;20052;-69
2021/12/16 06:40:27;;;;;;;74.97;37.80;;;;;;;1.50;100.00;101821.88;5055753;28;20028;-68
2021/12/16 06:42:56;;;;;;;80.55;40.55;;;;;;;1.60;100.00;101831.28;5059496;28;20031;-69
2021/12/16 06:45:56;;;;;;;85.88;41.03;;;;;;;1.60;100.00;101826.88;5056915;28;20033;-70
2021/12/16 06:48:30;;;;;;;85.07;40.00;;;;;;;1.66;100.00;101829.38;5053448;28;20120;-68
2021/12/16 06:51:00;;;;;;;81.35;39.17;;;;;;;1.66;100.00;101823.19;5057575;28;20108;-68
2021/12/16 06:53:47;;;;;;;80.57;41.03;;;;;;;1.70;100.00;101828.38;5055724;28;20060;-68
2021/12/16 06:56:26;;;;;;;87.47;41.63;;;;;;;1.68;100.00;101810.81;5061667;28;20029;-68
2021/12/16 06:59:05;;;;;;;89.90;41.15;;;;;;;1.76;100.00;101817.63;5056276;28;20033;-68
2021/12/16 07:04:04;;;;;;;83.43;40.95;;;;;;;1.84;100.00;101828.84;5064790;28;20037;-68
2021/12/16 07:06:32;;;;;;;79.05;39.13;;;;;;;1.86;100.00;101821.72;5066726;28;20025;-68
2021/12/16 07:09:13;;;;;;;73.72;39.63;;;;;;;1.89;100.00;101813.72;5068684;28;20463;-68
2021/12/16 07:11:48;;;;;;;80.70;39.33;;;;;;;1.89;100.00;101813.72;5059778;28;20028;-68
2021/12/16 07:14:16;;;;;;;71.65;37.83;;;;;;;1.99;100.00;101819.59;5061998;28;20028;-68
2021/12/16 07:16:51;;;;;;;81.03;39.72;;;;;;;1.98;100.00;101802.88;5063866;28;20029;-67
2021/12/16 07:19:16;;;;;;;76.00;38.83;;;;;;;2.09;100.00;101829.88;5063470;28;20033;-68
2021/12/16 07:21:43;;;;;;;80.70;39.88;;;;;;;2.11;100.00;101812.19;5063584;28;20021;-68
2021/12/16 07:24:13;;;;;;;82.85;39.40;;;;;;;2.14;100.00;101806.81;5052580;28;20476;-68
2021/12/16 07:26:39;;;;;;;88.35;42.47;;;;;;;2.24;100.00;101821.50;5068441;28;20098;-68
2021/12/16 07:29:06;;;;;;;86.60;41.17;;;;;;;2.27;100.00;101815.22;5062030;28;20085;-68
2021/12/16 07:31:33;;;;;;;86.13;41.50;;;;;;;2.31;100.00;101808.94;5065876;28;20048;-68
2021/12/16 07:34:00;;;;;;;85.80;41.38;;;;;;;2.35;100.00;101827.31;5065978;28;20036;-68
2021/12/16 07:36:26;;;;;;;98.40;42.70;;;;;;;2.49;100.00;101823.38;5060609;28;20029;-68
2021/12/16 07:38:53;;;;;;;100.20;46.20;;;;;;;2.53;100.00;101819.72;5067798;28;20036;-68
2021/12/16 07:41:21;;;;;;;90.82;43.47;;;;;;;2.61;100.00;101823.84;5060146;28;20021;-68
2021/12/16 07:43:58;;;;;;;93.70;43.30;;;;;;;2.66;100.00;101829.91;5061302;28;20059;-68
2021/12/16 07:46:25;;;;;;;83.57;40.33;;;;;;;2.72;100.00;101818.22;5065480;28;20116;-69
2021/12/16 07:48:50;;;;;;;76.80;37.55;;;;;;;2.76;100.00;101817.22;5056237;28;20396;-68
2021/12/16 07:51:16;;;;;;;76.30;38.55;;;;;;;2.75;100.00;101820.78;5066544;28;20062;-70
2021/12/16 07:53:42;;;;;;;84.72;40.10;;;;;;;2.80;100.00;101819.72;5057482;28;20071;-68
2021/12/16 07:56:08;;;;;;;73.35;37.95;;;;;;;2.82;100.00;101814.38;5059940;28;20032;-70
2021/12/16 07:58:35;;;;;;;79.32;39.10;;;;;;;2.77;100.00;101806.56;5065216;28;20047;-70
2021/12/16 08:01:01;;;;;;;81.63;39.15;;;;;;;2.85;100.00;101822.22;5054538;28;20027;-70
2021/12/16 08:03:34;;;;;;;76.95;39.05;;;;;;;2.87;100.00;101815.94;5065158;28;20524;-70
2021/12/16 08:06:05;;;;;;;82.60;41.30;;;;;;;2.91;100.00;101809.66;5061621;28;20021;-70
2021/12/16 08:08:30;;;;;;;84.03;40.08;;;;;;;2.88;100.00;101791.22;5062370;28;20104;-70
2021/12/16 08:10:56;;;;;;;82.20;39.45;;;;;;;2.95;100.00;101813.06;5069688;28;20432;-70
2021/12/16 08:13:21;;;;;;;79.97;39.00;;;;;;;3.01;100.00;101813.72;5052157;28;20492;-70
2021/12/16 08:15:47;;;;;;;76.70;39.42;;;;;;;3.06;100.00;101811.78;5061330;28;20036;-70
2021/12/16 08:18:13;;;;;;;80.95;39.63;;;;;;;3.06;100.00;101802.97;5066378;28;20024;-69
2021/12/16 08:20:40;;;;;;;81.75;37.75;;;;;;;3.13;100.00;101807.16;5066338;28;20028;-70
2021/12/16 08:23:06;;;;;;;81.07;39.08;;;;;;;3.25;100.00;101817.31;5058037;28;20025;-69
2021/12/16 08:25:32;;;;;;;80.03;39.92;;;;;;;3.29;100.00;101818.97;5061646;28;20569;-70
2021/12/16 08:28:00;;;;;;;79.68;38.58;;;;;;;3.33;100.00;101820.59;5064297;28;20040;-70
2021/12/16 08:30:29;;;;;;;81.07;39.70;;;;;;;3.38;100.00;101829.25;5061491;28;20047;-70
2021/12/16 08:32:56;;;;;;;75.32;38.85;;;;;;;3.40;100.00;101835.38;5059652;28;20395;-66
2021/12/16 08:35:22;;;;;;;81.70;39.17;;;;;;;3.43;100.00;101837.91;5071307;28;20028;-67
2021/12/16 08:37:48;;;;;;;77.63;39.58;;;;;;;3.49;100.00;101832.41;5070964;28;20055;-67
2021/12/16 08:40:23;;;;;;;91.10;40.78;;;;;;;3.58;100.00;101842.72;5061678;28;20033;-67
2021/12/16 08:42:49;;;;;;;88.97;41.78;;;;;;;3.56;100.00;101839.22;5066274;28;20548;-67
2021/12/16 08:45:19;;;;;;;85.00;40.28;;;;;;;3.59;100.00;101842.66;5065623;28;20035;-67
2021/12/16 08:47:45;;;;;;;90.63;42.30;;;;;;;3.61;100.00;101840.78;5067050;28;20025;-67
2021/12/16 08:50:13;;;;;;;83.13;41.83;;;;;;;3.67;100.00;101843.22;5050741;28;20531;-67
2021/12/16 08:52:39;;;;;;;96.55;44.75;;;;;;;3.77;100.00;101846.44;5058495;28;20099;-65
2021/12/16 08:55:05;;;;;;;93.55;42.95;;;;;;;3.82;100.00;101840.03;5050802;28;20037;-65
2021/12/16 08:57:31;;;;;;;100.68;45.45;;;;;;;3.82;100.00;101840.03;5063512;28;20232;-65
2021/12/16 08:59:57;;;;;;;97.80;43.08;;;;;;;3.80;100.00;101831.25;5052920;28;20025;-67
2021/12/16 09:02:22;;;;;;;97.03;44.08;;;;;;;3.93;100.00;101843.16;5055737;28;20040;-67
2021/12/16 09:04:49;;;;;;;99.80;44.60;;;;;;;3.89;100.00;101840.69;5051849;28;20116;-67
2021/12/16 09:07:16;;;;;;;91.57;43.15;;;;;;;4.01;100.00;101848.19;5061955;28;20585;-67
2021/12/16 09:09:43;;;;;;;93.88;43.25;;;;;;;4.01;100.00;101837.59;5063487;28;20028;-66
2021/12/16 09:12:37;;;;;;;93.63;41.78;;;;;;;3.99;100.00;101831.44;5056857;28;20104;-67
2021/12/16 09:15:08;;;;;;;84.18;42.20;;;;;;;3.95;100.00;101832.50;5055954;28;20071;-67
2021/12/16 09:17:33;;;;;;;94.18;42.40;;;;;;;3.99;100.00;101826.16;5069512;28;20036;-67
2021/12/16 09:19:59;;;;;;;94.30;44.38;;;;;;;4.10;100.00;101834.59;5061195;28;20120;-67
2021/12/16 09:22:26;;;;;;;89.72;42.53;;;;;;;4.14;100.00;101838.84;5070782;28;20090;-67
2021/12/16 09:24:53;;;;;;;99.60;42.75;;;;;;;4.22;100.00;101844.72;5068583;28;20108;-67
2021/12/16 09:27:18;;;;;;;92.40;40.83;;;;;;;4.21;100.00;101837.69;5070699;28;20056;-67
2021/12/16 09:29:45;;;;;;;95.10;40.55;;;;;;;4.20;100.00;101835.97;5070827;28;20031;-67
2021/12/16 09:32:11;;;;;;;86.75;40.85;;;;;;;4.12;100.00;101825.63;5056320;28;20376;-67
2021/12/16 09:34:39;;;;;;;83.40;39.58;;;;;;;4.21;100.00;101837.69;5062474;28;20032;-66
2021/12/16 09:37:07;;;;;;;85.20;42.30;;;;;;;4.17;100.00;101838.75;5062561;28;20060;-66
2021/12/16 09:39:32;;;;;;;85.95;41.97;;;;;;;4.18;100.00;101830.72;5061536;28;20493;-67
2021/12/16 09:41:59;;;;;;;87.43;43.33;;;;;;;4.20;100.00;101823.56;5059663;28;20021;-67
2021/12/16 09:44:26;;;;;;;82.07;40.85;;;;;;;4.21;100.00;101816.47;5069859;28;20056;-67
2021/12/16 09:46:55;;;;;;;86.82;40.72;;;;;;;4.23;100.00;101814.63;5069098;28;20032;-67
2021/12/16 09:49:21;;;;;;;91.72;43.15;;;;;;;4.29;100.00;101819.72;5059698;28;20036;-67
2021/12/16 09:51:49;;;;;;;87.72;42.05;;;;;;;4.32;100.00;101807.16;5058009;28;20029;-67
2021/12/16 09:54:18;;;;;;;89.95;42.47;;;;;;;4.28;100.00;101794.94;5066305;28;20044;-67
2021/12/16 09:56:45;;;;;;;86.80;41.70;;;;;;;4.35;100.00;101801.72;5054455;28;20733;-67
2021/12/16 09:59:14;;;;;;;79.40;39.92;;;;;;;4.40;100.00;101809.53;5050267;28;20033;-67
2021/12/16 10:01:42;;;;;;;82.22;41.85;;;;;;;4.41;100.00;101787.34;5062007;28;20030;-67
2021/12/16 10:04:13;;;;;;;78.97;39.28;;;;;;;4.43;100.00;101783.72;5051595;28;20040;-67
2021/12/16 10:06:40;;;;;;;74.22;37.97;;;;;;;4.47;100.00;101776.47;5056419;28;20032;-67
2021/12/16 10:09:08;;;;;;;81.05;38.58;;;;;;;4.49;100.00;101767.50;5053929;28;20551;-67
2021/12/16 10:11:35;;;;;;;83.90;41.13;;;;;;;4.53;100.00;101765.63;5068146;28;20399;-67
2021/12/16 10:14:19;;;;;;;76.38;38.45;;;;;;;4.59;100.00;101760.06;5047295;28;20111;-67
2021/12/16 10:19:34;;;;;;;69.55;37.72;;;;;;;4.67;100.00;101749.97;5063164;28;20094;-65
2021/12/16 10:22:40;;;;;;;72.45;39.28;;;;;;;4.82;100.00;101756.44;5064169;28;20388;-65
2021/12/16 10:25:30;;;;;;;75.75;38.78;;;;;;;4.97;100.00;101743.41;5070147;28;20081;-65
2021/12/16 10:27:59;;;;;;;68.10;36.22;;;;;;;4.97;100.00;101737.22;5047380;28;20045;-65
2021/12/16 10:30:34;;;;;;;64.45;34.70;;;;;;;4.87;100.00;101735.88;5049845;28;20033;-66
2021/12/16 10:33:11;;;;;;;73.25;37.40;;;;;;;4.84;100.00;101754.59;5056368;28;20033;-66
2021/12/16 10:35:36;;;;;;;66.53;37.13;;;;;;;4.82;100.00;101745.81;5057370;28;20372;-66
2021/12/16 10:38:05;;;;;;;76.47;39.05;;;;;;;4.82;100.00;101748.47;5048759;28;20037;-66
2021/12/16 10:40:42;;;;;;;74.38;39.60;;;;;;;4.84;100.00;101736.00;5059579;28;20551;-66
2021/12/16 10:43:14;;;;;;;73.45;39.85;;;;;;;4.88;100.00;101743.78;5054746;28;20555;-66
2021/12/16 10:45:47;;;;;;;71.88;39.58;;;;;;;4.91;100.00;101735.69;5049455;28;20628;-66
2021/12/16 10:48:17;;;;;;;74.80;39.33;;;;;;;5.03;100.00;101747.59;5055522;28;20021;-67
2021/12/16 10:50:53;;;;;;;74.80;40.53;;;;;;;5.03;100.00;101729.81;5068899;28;20348;-66
2021/12/16 10:53:56;;;;;;;77.68;40.97;;;;;;;5.10;100.00;101738.41;5065181;28;20097;-66
2021/12/16 10:56:33;;;;;;;77.13;41.60;;;;;;;5.16;100.00;101748.81;5054038;28;20024;-66
2021/12/16 10:58:58;;;;;;;74.75;41.47;;;;;;;5.20;100.00;101745.94;5065506;28;20036;-66
2021/12/16 11:01:51;;;;;;;76.28;40.20;;;;;;;5.23;100.00;101737.84;5054812;28;20051;-66
2021/12/16 11:04:22;;;;;;;77.55;41.90;;;;;;;5.27;100.00;101744.75;5064448;28;20024;-67
2021/12/16 11:07:01;;;;;;;75.53;42.42;;;;;;;5.34;100.00;101729.38;5067045;28;20037;-66
2021/12/16 11:09:39;;;;;;;81.78;44.78;;;;;;;5.32;100.00;101713.47;5059550;28;20025;-66
2021/12/16 11:12:18;;;;;;;84.28;42.22;;;;;;;5.45;100.00;101719.13;5049284;28;20132;-66
2021/12/16 11:14:49;;;;;;;78.60;43.97;;;;;;;5.48;100.00;101725.16;5069667;28;20086;-66
2021/12/16 11:17:17;;;;;;;83.53;43.83;;;;;;;5.51;100.00;101727.69;5067995;28;20107;-66
2021/12/16 11:19:48;;;;;;;88.07;46.20;;;;;;;5.56;100.00;101731.03;5069588;28;20032;-66
2021/12/16 11:22:18;;;;;;;87.22;46.40;;;;;;;5.58;100.00;101723.81;5062764;28;20112;-66
2021/12/16 11:24:44;;;;;;;82.18;44.95;;;;;;;5.60;100.00;101718.41;5063746;28;20032;-67
2021/12/16 11:27:30;;;;;;;81.93;45.83;;;;;;;5.64;100.00;101720.03;5066500;28;20468;-67
2021/12/16 11:29:57;;;;;;;73.63;41.17;;;;;;;5.79;100.00;101709.53;5056236;28;20578;-66
2021/12/16 11:32:37;;;;;;;79.50;43.25;;;;;;;5.84;100.00;101712.88;5060204;28;20512;-66
2021/12/16 11:35:31;;;;;;;75.60;42.15;;;;;;;5.89;100.00;101702.03;5060343;28;20102;-66
2021/12/16 11:38:03;;;;;;;72.72;40.20;;;;;;;5.87;100.00;101706.56;5048185;28;20039;-66
2021/12/16 11:40:50;;;;;;;81.32;43.53;;;;;;;5.88;100.00;101706.50;5050670;28;20492;-67
2021/12/16 11:43:16;;;;;;;76.18;42.13;;;;;;;5.95;100.00;101715.91;5062888;28;20025;-67
2021/12/16 11:45:42;;;;;;;83.28;43.47;;;;;;;5.97;100.00;101710.53;5059802;28;20090;-66
2021/12/16 11:48:08;;;;;;;81.47;43.45;;;;;;;6.05;100.00;101708.34;5062321;28;20115;-66
2021/12/16 11:50:40;;;;;;;82.55;44.10;;;;;;;6.01;100.00;101705.00;5060673;28;20047;-66
2021/12/16 11:53:07;;;;;;;83.38;45.70;;;;;;;5.98;100.00;101694.47;5054283;28;20120;-67
2021/12/16 11:55:37;;;;;;;76.00;41.85;;;;;;;6.02;100.00;101697.84;5057111;28;20032;-66
2021/12/16 11:58:04;;;;;;;81.40;44.10;;;;;;;6.08;100.00;101701.09;5072430;28;20440;-66
2021/12/16 12:00:37;;;;;;;81.53;45.08;;;;;;;6.07;100.00;101694.06;5065139;28;20073;-66
2021/12/16 12:03:14;;;;;;;75.07;42.50;;;;;;;6.09;100.00;101692.16;5068188;28;20099;-66
2021/12/16 12:05:42;;;;;;;84.07;44.90;;;;;;;6.18;100.00;101693.50;5066592;28;20055;-66
2021/12/16 12:08:10;;;;;;;86.57;44.45;;;;;;;6.19;100.00;101696.09;5070943;28;20466;-66
2021/12/16 12:11:03;;;;;;;83.50;44.00;;;;;;;6.26;100.00;101692.22;5064230;28;20040;-66
2021/12/16 12:13:35;;;;;;;78.60;43.58;;;;;;;6.16;100.00;101685.59;5059411;28;20044;-67
2021/12/16 12:16:09;;;;;;;77.95;43.85;;;;;;;6.23;100.00;101695.00;5057016;28;20021;-65
2021/12/16 12:18:34;;;;;;;83.25;44.08;;;;;;;6.17;100.00;101692.69;5052180;28;20028;-67
2021/12/16 12:21:30;;;;;;;78.93;43.08;;;;;;;6.11;100.00;101689.44;5059019;28;20021;-66
2021/12/16 12:24:14;;;;;;;83.10;43.15;;;;;;;6.13;100.00;101685.75;5070756;28;20116;-66
2021/12/16 12:26:53;;;;;;;79.47;43.45;;;;;;;6.15;100.00;101696.31;5049401;28;20037;-67
2021/12/16 12:29:36;;;;;;;81.82;41.97;;;;;;;6.18;100.00;101702.38;5050459;28;20044;-66
2021/12/16 12:32:08;;;;;;;85.78;43.53;;;;;;;6.13;100.00;101698.22;5051770;28;20072;-67
2021/12/16 12:34:36;;;;;;;82.15;43.00;;;;;;;6.12;100.00;101702.66;5057248;28;20107;-67
2021/12/16 12:37:06;;;;;;;81.53;43.97;;;;;;;6.14;100.00;101699.94;5071515;28;20016;-66
2021/12/16 12:39:36;;;;;;;77.75;43.60;;;;;;;6.12;100.00;101704.47;5072271;28;20356;-67
2021/12/16 12:42:03;;;;;;;82.05;44.97;;;;;;;6.06;100.00;101704.78;5071532;28;20029;-67
2021/12/16 12:44:29;;;;;;;79.32;43.35;;;;;;;6.11;100.00;101708.06;5071652;28;20471;-66
2021/12/16 12:46:59;;;;;;;79.30;43.83;;;;;;;6.09;100.00;101704.59;5071626;28;20036;-66
2021/12/16 12:49:28;;;;;;;71.55;41.13;;;;;;;6.11;100.00;101708.06;5056050;28;20056;-67
2021/12/16 12:52:03;;;;;;;75.60;43.65;;;;;;;6.09;100.00;101704.59;5056473;28;20082;-67
2021/12/16 12:54:31;;;;;;;81.60;44.72;;;;;;;6.07;100.00;101706.50;5050279;28;20145;-66
2021/12/16 12:57:16;;;;;;;75.70;43.03;;;;;;;6.08;100.00;101709.09;5061505;28;20452;-66
2021/12/16 12:59:42;;;;;;;79.55;44.03;;;;;;;6.12;100.00;101708.00;5063285;28;20086;-66
2021/12/16 13:02:28;;;;;;;74.57;41.60;;;;;;;6.12;100.00;101702.66;5051070;28;20040;-66
2021/12/16 13:04:57;;;;;;;80.50;43.58;;;;;;;6.11;100.00;101700.06;5052615;28;20388;-67
2021/12/16 13:07:38;;;;;;;82.45;44.20;;;;;;;6.12;100.00;101696.47;5051155;28;20033;-66
2021/12/16 13:10:16;;;;;;;79.28;44.00;;;;;;;6.13;100.00;101698.22;5061634;28;20094;-67
2021/12/16 13:12:53;;;;;;;76.93;44.10;;;;;;;6.15;100.00;101701.66;5051527;28;20028;-67
2021/12/16 13:16:17;;;;;;;80.55;43.33;;;;;;;6.16;100.00;101693.59;5055611;28;20092;-67
2021/12/16 13:27:21;;;;;;;81.40;42.92;;;;;;;6.28;100.00;101685.03;5065031;28;20128;-67
2021/12/16 13:30:15;;;;;;;76.63;43.17;;;;;;;6.28;100.00;101687.69;5066052;28;20020;-67
2021/12/16 13:32:49;;;;;;;81.60;44.20;;;;;;;6.25;100.00;101693.16;5050699;28;20159;-66
2021/12/16 13:35:48;;;;;;;73.15;40.55;;;;;;;6.23;100.00;101687.03;5049617;28;20032;-67
2021/12/16 13:38:08;;;;;;;76.25;41.97;;;;;;;6.24;100.00;101687.91;5056590;28;20033;-67
2021/12/16 13:40:40;;;;;;;78.75;43.30;;;;;;;6.25;100.00;101697.59;5050836;28;20040;-67
2021/12/16 13:43:20;;;;;;;77.03;43.75;;;;;;;6.27;100.00;101706.41;5053227;28;20033;-67
2021/12/16 14:01:07;;;;;;;71.20;42.33;;;;;;;6.33;100.00;101696.34;5060402;28;20577;-65
2021/12/16 14:03:27;;;;;;;74.25;42.90;;;;;;;6.35;100.00;101699.75;5053913;28;20044;-65
2021/12/16 14:08:43;;;;;;;80.10;45.30;;;;;;;6.37;100.00;101703.22;5047843;28;20039;-66
2021/12/16 14:12:16;;;;;;;81.25;43.70;;;;;;;6.42;100.00;101700.34;5049807;28;20040;-65
2021/12/16 14:17:56;;;;;;;74.93;41.47;;;;;;;6.42;100.00;101713.66;5069187;28;20070;-66
2021/12/16 14:23:34;;;;;;;77.75;41.53;;;;;;;6.40;100.00;101704.88;5053396;28;20043;-66